sensor_id;sensor_type;location;lat;lon;timestamp;temperature;humidity
1351;DHT22;669;50.206;9.998;2022-10-31T00:00:47;8.60;76.20
1351;DHT22;669;50.206;9.998;2022-10-31T00:03:15;8.60;77.10
1351;DHT22;669;50.206;9.998;2022-10-31T00:05:44;8.60;76.70
1351;DHT22;669;50.206;9.998;2022-10-31T00:08:13;8.50;76.30
1351;DHT22;669;50.206;9.998;2022-10-31T00:10:42;8.50;78.00
1351;DHT22;669;50.206;9.998;2022-10-31T00:13:11;8.60;79.40
1351;DHT22;669;50.206;9.998;2022-10-31T00:15:41;8.70;79.40
1351;DHT22;669;50.206;9.998;2022-10-31T00:18:09;8.70;77.70
1351;DHT22;669;50.206;9.998;2022-10-31T00:20:38;8.60;76.10
1351;DHT22;669;50.206;9.998;2022-10-31T00:23:06;8.60;76.20
1351;DHT22;669;50.206;9.998;2022-10-31T00:25:35;8.60;76.60
1351;DHT22;669;50.206;9.998;2022-10-31T00:28:05;8.60;78.50
1351;DHT22;669;50.206;9.998;2022-10-31T00:30:33;8.70;80.20
1351;DHT22;669;50.206;9.998;2022-10-31T00:33:04;8.70;77.50
1351;DHT22;669;50.206;9.998;2022-10-31T00:35:32;8.60;76.90
1351;DHT22;669;50.206;9.998;2022-10-31T00:38:00;8.60;75.90
1351;DHT22;669;50.206;9.998;2022-10-31T00:40:28;8.50;75.80
1351;DHT22;669;50.206;9.998;2022-10-31T00:42:56;8.40;74.60
1351;DHT22;669;50.206;9.998;2022-10-31T00:45:24;8.40;75.90
1351;DHT22;669;50.206;9.998;2022-10-31T00:47:52;8.40;77.40
1351;DHT22;669;50.206;9.998;2022-10-31T00:50:21;8.40;77.70
1351;DHT22;669;50.206;9.998;2022-10-31T00:52:49;8.50;78.10
1351;DHT22;669;50.206;9.998;2022-10-31T00:55:17;8.50;78.50
1351;DHT22;669;50.206;9.998;2022-10-31T00:57:46;8.60;78.50
1351;DHT22;669;50.206;9.998;2022-10-31T01:00:15;8.60;78.60
1351;DHT22;669;50.206;9.998;2022-10-31T01:02:43;8.70;79.50
1351;DHT22;669;50.206;9.998;2022-10-31T01:05:12;8.70;77.90
1351;DHT22;669;50.206;9.998;2022-10-31T01:07:42;8.70;78.30
1351;DHT22;669;50.206;9.998;2022-10-31T01:10:10;8.70;78.80
1351;DHT22;669;50.206;9.998;2022-10-31T01:12:39;8.70;79.40
1351;DHT22;669;50.206;9.998;2022-10-31T01:15:09;8.70;79.40
1351;DHT22;669;50.206;9.998;2022-10-31T01:17:38;8.70;79.50
1351;DHT22;669;50.206;9.998;2022-10-31T01:20:08;8.80;80.10
1351;DHT22;669;50.206;9.998;2022-10-31T01:22:37;8.80;81.20
1351;DHT22;669;50.206;9.998;2022-10-31T01:25:08;8.90;80.90
1351;DHT22;669;50.206;9.998;2022-10-31T01:27:36;8.90;80.40
1351;DHT22;669;50.206;9.998;2022-10-31T01:30:05;8.80;77.90
1351;DHT22;669;50.206;9.998;2022-10-31T01:32:33;8.70;76.80
1351;DHT22;669;50.206;9.998;2022-10-31T01:35:01;8.60;76.40
1351;DHT22;669;50.206;9.998;2022-10-31T01:37:30;8.50;78.10
1351;DHT22;669;50.206;9.998;2022-10-31T01:39:58;8.50;78.40
1351;DHT22;669;50.206;9.998;2022-10-31T01:42:27;8.50;78.60
1351;DHT22;669;50.206;9.998;2022-10-31T01:44:58;8.50;78.80
1351;DHT22;669;50.206;9.998;2022-10-31T01:47:34;8.50;78.40
1351;DHT22;669;50.206;9.998;2022-10-31T01:50:11;8.50;78.40
1351;DHT22;669;50.206;9.998;2022-10-31T01:52:43;8.50;78.40
1351;DHT22;669;50.206;9.998;2022-10-31T01:55:15;8.50;79.10
1351;DHT22;669;50.206;9.998;2022-10-31T01:57:47;8.50;79.80
1351;DHT22;669;50.206;9.998;2022-10-31T02:00:17;8.60;80.00
1351;DHT22;669;50.206;9.998;2022-10-31T02:02:45;8.60;78.50
1351;DHT22;669;50.206;9.998;2022-10-31T02:05:16;8.60;78.60
1351;DHT22;669;50.206;9.998;2022-10-31T02:07:50;8.60;76.70
1351;DHT22;669;50.206;9.998;2022-10-31T02:10:21;8.50;75.70
1351;DHT22;669;50.206;9.998;2022-10-31T02:12:52;8.40;75.20
1351;DHT22;669;50.206;9.998;2022-10-31T02:15:21;8.30;74.20
1351;DHT22;669;50.206;9.998;2022-10-31T02:17:49;8.10;73.60
1351;DHT22;669;50.206;9.998;2022-10-31T02:20:19;8.10;75.20
1351;DHT22;669;50.206;9.998;2022-10-31T02:23:10;8.10;77.30
1351;DHT22;669;50.206;9.998;2022-10-31T02:25:56;8.10;77.40
1351;DHT22;669;50.206;9.998;2022-10-31T02:28:56;8.20;76.80
1351;DHT22;669;50.206;9.998;2022-10-31T02:31:34;8.20;78.80
1351;DHT22;669;50.206;9.998;2022-10-31T02:34:15;8.20;78.20
1351;DHT22;669;50.206;9.998;2022-10-31T02:36:50;8.30;78.40
1351;DHT22;669;50.206;9.998;2022-10-31T02:39:24;8.30;79.60
1351;DHT22;669;50.206;9.998;2022-10-31T02:41:59;8.40;80.00
1351;DHT22;669;50.206;9.998;2022-10-31T02:44:33;8.50;80.50
1351;DHT22;669;50.206;9.998;2022-10-31T02:47:08;8.60;80.20
1351;DHT22;669;50.206;9.998;2022-10-31T02:49:42;8.60;80.70
1351;DHT22;669;50.206;9.998;2022-10-31T02:52:16;8.70;79.60
1351;DHT22;669;50.206;9.998;2022-10-31T02:54:46;8.60;77.80
1351;DHT22;669;50.206;9.998;2022-10-31T02:57:16;8.60;78.50
1351;DHT22;669;50.206;9.998;2022-10-31T02:59:47;8.60;78.50
1351;DHT22;669;50.206;9.998;2022-10-31T03:02:34;8.50;77.60
1351;DHT22;669;50.206;9.998;2022-10-31T03:05:13;8.40;77.20
1351;DHT22;669;50.206;9.998;2022-10-31T03:07:47;8.30;76.20
1351;DHT22;669;50.206;9.998;2022-10-31T03:10:27;8.20;76.70
1351;DHT22;669;50.206;9.998;2022-10-31T03:13:02;8.20;78.20
1351;DHT22;669;50.206;9.998;2022-10-31T03:15:34;8.20;78.20
1351;DHT22;669;50.206;9.998;2022-10-31T03:18:08;8.10;77.00
1351;DHT22;669;50.206;9.998;2022-10-31T03:20:39;8.10;78.10
1351;DHT22;669;50.206;9.998;2022-10-31T03:23:10;8.00;77.30
1351;DHT22;669;50.206;9.998;2022-10-31T03:25:39;8.00;77.30
1351;DHT22;669;50.206;9.998;2022-10-31T03:28:08;7.90;77.90
1351;DHT22;669;50.206;9.998;2022-10-31T03:30:41;7.90;77.30
1351;DHT22;669;50.206;9.998;2022-10-31T03:33:15;7.90;77.90
1351;DHT22;669;50.206;9.998;2022-10-31T03:35:46;7.90;77.30
1351;DHT22;669;50.206;9.998;2022-10-31T03:38:15;7.80;76.60
1351;DHT22;669;50.206;9.998;2022-10-31T03:40:45;7.80;76.00
1351;DHT22;669;50.206;9.998;2022-10-31T03:43:17;7.70;76.30
1351;DHT22;669;50.206;9.998;2022-10-31T03:45:51;7.70;77.20
1351;DHT22;669;50.206;9.998;2022-10-31T03:48:21;7.70;77.30
1351;DHT22;669;50.206;9.998;2022-10-31T03:50:56;7.70;77.00
1351;DHT22;669;50.206;9.998;2022-10-31T03:53:30;7.70;76.70
1351;DHT22;669;50.206;9.998;2022-10-31T03:56:02;7.70;77.70
1351;DHT22;669;50.206;9.998;2022-10-31T03:58:36;7.70;78.10
1351;DHT22;669;50.206;9.998;2022-10-31T04:01:06;7.70;76.90
1351;DHT22;669;50.206;9.998;2022-10-31T04:03:38;7.60;75.90
1351;DHT22;669;50.206;9.998;2022-10-31T04:06:09;7.60;75.60
1351;DHT22;669;50.206;9.998;2022-10-31T04:08:41;7.50;75.20
1351;DHT22;669;50.206;9.998;2022-10-31T04:11:11;7.50;75.30
1351;DHT22;669;50.206;9.998;2022-10-31T04:13:42;7.40;74.80
1351;DHT22;669;50.206;9.998;2022-10-31T04:16:13;7.40;75.50
1351;DHT22;669;50.206;9.998;2022-10-31T04:18:44;7.40;76.20
1351;DHT22;669;50.206;9.998;2022-10-31T04:21:12;7.30;76.40
1351;DHT22;669;50.206;9.998;2022-10-31T04:23:40;7.40;76.70
1351;DHT22;669;50.206;9.998;2022-10-31T04:26:10;7.40;77.40
1351;DHT22;669;50.206;9.998;2022-10-31T04:28:39;7.50;77.50
1351;DHT22;669;50.206;9.998;2022-10-31T04:31:08;7.50;79.00
1351;DHT22;669;50.206;9.998;2022-10-31T04:33:37;7.60;78.50
1351;DHT22;669;50.206;9.998;2022-10-31T04:36:07;7.60;76.30
1351;DHT22;669;50.206;9.998;2022-10-31T04:38:34;7.50;75.90
1351;DHT22;669;50.206;9.998;2022-10-31T04:41:02;7.40;75.70
1351;DHT22;669;50.206;9.998;2022-10-31T04:43:30;7.40;75.60
1351;DHT22;669;50.206;9.998;2022-10-31T04:45:58;7.30;74.70
1351;DHT22;669;50.206;9.998;2022-10-31T04:48:26;7.20;75.40
1351;DHT22;669;50.206;9.998;2022-10-31T04:50:58;7.20;75.10
1351;DHT22;669;50.206;9.998;2022-10-31T04:53:28;7.20;75.50
1351;DHT22;669;50.206;9.998;2022-10-31T04:55:58;7.20;75.70
1351;DHT22;669;50.206;9.998;2022-10-31T04:58:26;7.20;76.10
1351;DHT22;669;50.206;9.998;2022-10-31T05:00:55;7.10;76.40
1351;DHT22;669;50.206;9.998;2022-10-31T05:03:23;7.20;76.60
1351;DHT22;669;50.206;9.998;2022-10-31T05:05:51;7.20;76.30
1351;DHT22;669;50.206;9.998;2022-10-31T05:08:19;7.20;75.80
1351;DHT22;669;50.206;9.998;2022-10-31T05:10:48;7.10;74.40
1351;DHT22;669;50.206;9.998;2022-10-31T05:13:16;7.10;75.60
1351;DHT22;669;50.206;9.998;2022-10-31T05:15:44;7.10;76.40
1351;DHT22;669;50.206;9.998;2022-10-31T05:18:12;7.10;76.50
1351;DHT22;669;50.206;9.998;2022-10-31T05:20:40;7.20;77.20
1351;DHT22;669;50.206;9.998;2022-10-31T05:23:08;7.20;77.50
1351;DHT22;669;50.206;9.998;2022-10-31T05:25:36;7.30;78.20
1351;DHT22;669;50.206;9.998;2022-10-31T05:28:05;7.40;79.00
1351;DHT22;669;50.206;9.998;2022-10-31T05:30:34;7.40;79.00
1351;DHT22;669;50.206;9.998;2022-10-31T05:33:02;7.50;78.40
1351;DHT22;669;50.206;9.998;2022-10-31T05:35:31;7.50;78.50
1351;DHT22;669;50.206;9.998;2022-10-31T05:38:00;7.50;78.80
1351;DHT22;669;50.206;9.998;2022-10-31T05:40:28;7.60;78.50
1351;DHT22;669;50.206;9.998;2022-10-31T05:42:56;7.60;78.90
1351;DHT22;669;50.206;9.998;2022-10-31T05:45:27;7.60;79.10
1351;DHT22;669;50.206;9.998;2022-10-31T05:47:56;7.70;79.60
1351;DHT22;669;50.206;9.998;2022-10-31T05:50:26;7.70;79.80
1351;DHT22;669;50.206;9.998;2022-10-31T05:52:56;7.70;79.00
1351;DHT22;669;50.206;9.998;2022-10-31T05:55:25;7.70;78.60
1351;DHT22;669;50.206;9.998;2022-10-31T05:57:53;7.70;78.20
1351;DHT22;669;50.206;9.998;2022-10-31T06:00:22;7.70;79.20
1351;DHT22;669;50.206;9.998;2022-10-31T06:02:57;7.80;79.40
1351;DHT22;669;50.206;9.998;2022-10-31T06:05:25;7.70;75.90
1351;DHT22;669;50.206;9.998;2022-10-31T06:07:53;7.50;74.70
1351;DHT22;669;50.206;9.998;2022-10-31T06:10:21;7.40;73.50
1351;DHT22;669;50.206;9.998;2022-10-31T06:12:49;7.30;74.00
1351;DHT22;669;50.206;9.998;2022-10-31T06:15:18;7.20;74.40
1351;DHT22;669;50.206;9.998;2022-10-31T06:17:59;7.20;75.20
1351;DHT22;669;50.206;9.998;2022-10-31T06:20:28;7.10;74.60
1351;DHT22;669;50.206;9.998;2022-10-31T06:22:56;7.10;74.60
1351;DHT22;669;50.206;9.998;2022-10-31T06:25:24;7.10;75.60
1351;DHT22;669;50.206;9.998;2022-10-31T06:27:52;7.10;75.80
1351;DHT22;669;50.206;9.998;2022-10-31T06:30:20;7.20;75.70
1351;DHT22;669;50.206;9.998;2022-10-31T06:32:48;7.20;75.70
1351;DHT22;669;50.206;9.998;2022-10-31T06:35:18;7.20;75.20
1351;DHT22;669;50.206;9.998;2022-10-31T06:37:51;7.20;75.20
1351;DHT22;669;50.206;9.998;2022-10-31T06:40:19;7.20;74.50
1351;DHT22;669;50.206;9.998;2022-10-31T06:42:47;7.20;73.90
1351;DHT22;669;50.206;9.998;2022-10-31T06:45:15;7.20;75.10
1351;DHT22;669;50.206;9.998;2022-10-31T06:47:43;7.30;75.80
1351;DHT22;669;50.206;9.998;2022-10-31T06:50:38;7.40;76.60
1351;DHT22;669;50.206;9.998;2022-10-31T06:53:07;7.50;77.50
1351;DHT22;669;50.206;9.998;2022-10-31T06:55:41;7.70;77.70
1351;DHT22;669;50.206;9.998;2022-10-31T06:58:10;7.70;76.00
1351;DHT22;669;50.206;9.998;2022-10-31T07:00:38;7.70;74.80
1351;DHT22;669;50.206;9.998;2022-10-31T07:03:09;7.70;73.00
1351;DHT22;669;50.206;9.998;2022-10-31T07:05:38;7.60;74.80
1351;DHT22;669;50.206;9.998;2022-10-31T07:08:09;7.60;75.20
1351;DHT22;669;50.206;9.998;2022-10-31T07:10:39;7.70;75.80
1351;DHT22;669;50.206;9.998;2022-10-31T07:13:10;7.80;76.50
1351;DHT22;669;50.206;9.998;2022-10-31T07:15:40;7.90;76.30
1351;DHT22;669;50.206;9.998;2022-10-31T07:18:10;7.90;75.60
1351;DHT22;669;50.206;9.998;2022-10-31T07:20:39;8.10;76.00
1351;DHT22;669;50.206;9.998;2022-10-31T07:23:08;8.20;76.50
1351;DHT22;669;50.206;9.998;2022-10-31T07:25:37;8.40;76.40
1351;DHT22;669;50.206;9.998;2022-10-31T07:28:05;8.60;75.40
1351;DHT22;669;50.206;9.998;2022-10-31T07:30:33;8.70;73.90
1351;DHT22;669;50.206;9.998;2022-10-31T07:33:01;8.80;74.00
1351;DHT22;669;50.206;9.998;2022-10-31T07:35:29;9.00;74.10
1351;DHT22;669;50.206;9.998;2022-10-31T07:38:06;9.30;72.90
1351;DHT22;669;50.206;9.998;2022-10-31T07:40:34;9.50;71.80
1351;DHT22;669;50.206;9.998;2022-10-31T07:43:02;9.80;70.40
1351;DHT22;669;50.206;9.998;2022-10-31T07:45:38;10.00;69.20
1351;DHT22;669;50.206;9.998;2022-10-31T07:48:06;10.30;69.40
1351;DHT22;669;50.206;9.998;2022-10-31T07:50:34;10.70;67.80
1351;DHT22;669;50.206;9.998;2022-10-31T07:53:05;11.10;67.90
1351;DHT22;669;50.206;9.998;2022-10-31T07:55:33;11.50;65.70
1351;DHT22;669;50.206;9.998;2022-10-31T07:58:03;11.90;66.70
1351;DHT22;669;50.206;9.998;2022-10-31T08:00:32;12.30;65.20
1351;DHT22;669;50.206;9.998;2022-10-31T08:03:02;12.60;64.70
1351;DHT22;669;50.206;9.998;2022-10-31T08:05:31;12.80;63.10
1351;DHT22;669;50.206;9.998;2022-10-31T08:07:59;13.00;63.20
1351;DHT22;669;50.206;9.998;2022-10-31T08:10:30;13.10;62.60
1351;DHT22;669;50.206;9.998;2022-10-31T08:12:59;13.10;62.40
1351;DHT22;669;50.206;9.998;2022-10-31T08:15:28;13.00;64.10
1351;DHT22;669;50.206;9.998;2022-10-31T08:17:56;13.00;63.40
1351;DHT22;669;50.206;9.998;2022-10-31T08:20:24;12.80;62.90
1351;DHT22;669;50.206;9.998;2022-10-31T08:22:54;12.70;63.70
1351;DHT22;669;50.206;9.998;2022-10-31T08:25:22;12.70;64.10
1351;DHT22;669;50.206;9.998;2022-10-31T08:27:53;12.70;65.50
1351;DHT22;669;50.206;9.998;2022-10-31T08:30:22;12.90;66.50
1351;DHT22;669;50.206;9.998;2022-10-31T08:32:58;13.10;65.50
1351;DHT22;669;50.206;9.998;2022-10-31T08:35:26;13.40;65.80
1351;DHT22;669;50.206;9.998;2022-10-31T08:37:54;13.60;65.50
1351;DHT22;669;50.206;9.998;2022-10-31T08:40:23;13.90;66.50
1351;DHT22;669;50.206;9.998;2022-10-31T08:43:00;14.20;66.60
1351;DHT22;669;50.206;9.998;2022-10-31T08:45:29;14.50;67.60
1351;DHT22;669;50.206;9.998;2022-10-31T08:47:58;14.90;67.40
1351;DHT22;669;50.206;9.998;2022-10-31T08:50:27;15.30;66.90
1351;DHT22;669;50.206;9.998;2022-10-31T08:53:00;15.60;64.80
1351;DHT22;669;50.206;9.998;2022-10-31T08:55:33;15.90;65.50
1351;DHT22;669;50.206;9.998;2022-10-31T08:58:04;16.00;64.30
1351;DHT22;669;50.206;9.998;2022-10-31T09:00:32;16.20;63.50
1351;DHT22;669;50.206;9.998;2022-10-31T09:03:02;16.40;63.60
1351;DHT22;669;50.206;9.998;2022-10-31T09:05:31;16.50;64.10
1351;DHT22;669;50.206;9.998;2022-10-31T09:08:00;16.70;63.10
1351;DHT22;669;50.206;9.998;2022-10-31T09:10:30;16.90;63.00
1351;DHT22;669;50.206;9.998;2022-10-31T09:12:59;17.00;63.20
1351;DHT22;669;50.206;9.998;2022-10-31T09:15:29;17.10;62.30
1351;DHT22;669;50.206;9.998;2022-10-31T09:17:57;17.10;62.40
1351;DHT22;669;50.206;9.998;2022-10-31T09:20:26;17.20;61.90
1351;DHT22;669;50.206;9.998;2022-10-31T09:22:58;17.30;62.00
1351;DHT22;669;50.206;9.998;2022-10-31T09:25:27;17.40;61.50
1351;DHT22;669;50.206;9.998;2022-10-31T09:27:56;17.60;61.70
1351;DHT22;669;50.206;9.998;2022-10-31T09:30:27;17.70;61.80
1351;DHT22;669;50.206;9.998;2022-10-31T09:32:58;17.90;61.90
1351;DHT22;669;50.206;9.998;2022-10-31T09:35:26;18.00;61.70
1351;DHT22;669;50.206;9.998;2022-10-31T09:37:55;18.10;60.60
1351;DHT22;669;50.206;9.998;2022-10-31T09:40:27;18.30;61.10
1351;DHT22;669;50.206;9.998;2022-10-31T09:43:03;18.40;60.70
1351;DHT22;669;50.206;9.998;2022-10-31T09:45:38;18.40;59.40
1351;DHT22;669;50.206;9.998;2022-10-31T09:48:27;18.40;59.50
1351;DHT22;669;50.206;9.998;2022-10-31T09:51:01;18.40;60.00
1351;DHT22;669;50.206;9.998;2022-10-31T09:53:36;18.40;59.00
1351;DHT22;669;50.206;9.998;2022-10-31T09:56:06;18.40;59.50
1351;DHT22;669;50.206;9.998;2022-10-31T09:58:41;18.50;59.30
1351;DHT22;669;50.206;9.998;2022-10-31T10:01:19;18.50;59.70
1351;DHT22;669;50.206;9.998;2022-10-31T10:03:55;18.40;59.00
1351;DHT22;669;50.206;9.998;2022-10-31T10:06:27;18.30;58.90
1351;DHT22;669;50.206;9.998;2022-10-31T10:08:56;18.00;60.20
1351;DHT22;669;50.206;9.998;2022-10-31T10:11:45;17.80;60.60
1351;DHT22;669;50.206;9.998;2022-10-31T10:14:35;17.70;61.90
1351;DHT22;669;50.206;9.998;2022-10-31T10:17:18;17.70;61.60
1351;DHT22;669;50.206;9.998;2022-10-31T10:20:18;17.70;60.50
1351;DHT22;669;50.206;9.998;2022-10-31T10:22:55;17.60;61.70
1351;DHT22;669;50.206;9.998;2022-10-31T10:25:31;17.60;62.30
1351;DHT22;669;50.206;9.998;2022-10-31T10:28:10;17.50;62.50
1351;DHT22;669;50.206;9.998;2022-10-31T10:30:44;17.60;62.30
1351;DHT22;669;50.206;9.998;2022-10-31T10:33:15;17.60;61.70
1351;DHT22;669;50.206;9.998;2022-10-31T10:35:49;17.60;61.50
1351;DHT22;669;50.206;9.998;2022-10-31T10:38:23;17.50;61.60
1351;DHT22;669;50.206;9.998;2022-10-31T10:40:53;17.50;61.70
1351;DHT22;669;50.206;9.998;2022-10-31T10:43:24;17.50;61.10
1351;DHT22;669;50.206;9.998;2022-10-31T10:49:22;17.40;63.50
1351;DHT22;669;50.206;9.998;2022-10-31T10:51:58;17.50;61.40
1351;DHT22;669;50.206;9.998;2022-10-31T10:54:54;17.50;62.40
1351;DHT22;669;50.206;9.998;2022-10-31T10:57:43;17.50;62.10
1351;DHT22;669;50.206;9.998;2022-10-31T11:00:18;17.50;61.70
1351;DHT22;669;50.206;9.998;2022-10-31T11:02:46;17.50;60.90
1351;DHT22;669;50.206;9.998;2022-10-31T11:05:23;17.60;62.90
1351;DHT22;669;50.206;9.998;2022-10-31T11:07:52;17.70;62.00
1351;DHT22;669;50.206;9.998;2022-10-31T11:10:20;17.70;61.00
1351;DHT22;669;50.206;9.998;2022-10-31T11:13:01;17.70;60.80
1351;DHT22;669;50.206;9.998;2022-10-31T11:15:33;17.70;61.90
1351;DHT22;669;50.206;9.998;2022-10-31T11:18:02;17.90;62.00
1351;DHT22;669;50.206;9.998;2022-10-31T11:20:33;18.20;61.30
1351;DHT22;669;50.206;9.998;2022-10-31T11:23:15;18.40;59.70
1351;DHT22;669;50.206;9.998;2022-10-31T11:25:51;18.30;58.80
1351;DHT22;669;50.206;9.998;2022-10-31T11:28:20;18.20;59.00
1351;DHT22;669;50.206;9.998;2022-10-31T11:30:50;18.20;59.90
1351;DHT22;669;50.206;9.998;2022-10-31T11:33:23;18.20;60.50
1351;DHT22;669;50.206;9.998;2022-10-31T11:35:53;18.40;60.60
1351;DHT22;669;50.206;9.998;2022-10-31T11:38:31;18.40;58.90
1351;DHT22;669;50.206;9.998;2022-10-31T11:41:07;18.30;59.00
1351;DHT22;669;50.206;9.998;2022-10-31T11:43:37;18.40;59.40
1351;DHT22;669;50.206;9.998;2022-10-31T11:46:10;18.50;59.80
1351;DHT22;669;50.206;9.998;2022-10-31T11:48:38;18.60;59.70
1351;DHT22;669;50.206;9.998;2022-10-31T11:51:06;18.70;59.40
1351;DHT22;669;50.206;9.998;2022-10-31T11:53:36;18.80;59.40
1351;DHT22;669;50.206;9.998;2022-10-31T11:56:10;18.90;59.20
1351;DHT22;669;50.206;9.998;2022-10-31T11:58:40;18.90;58.10
1351;DHT22;669;50.206;9.998;2022-10-31T12:01:22;18.80;58.10
1351;DHT22;669;50.206;9.998;2022-10-31T12:03:58;18.70;59.00
1351;DHT22;669;50.206;9.998;2022-10-31T12:06:31;18.70;58.50
1351;DHT22;669;50.206;9.998;2022-10-31T12:09:02;18.60;58.00
1351;DHT22;669;50.206;9.998;2022-10-31T12:11:42;18.50;59.00
1351;DHT22;669;50.206;9.998;2022-10-31T12:14:20;18.50;59.60
1351;DHT22;669;50.206;9.998;2022-10-31T12:16:55;18.40;59.30
1351;DHT22;669;50.206;9.998;2022-10-31T12:19:32;18.40;59.90
1351;DHT22;669;50.206;9.998;2022-10-31T12:22:11;18.40;59.30
1351;DHT22;669;50.206;9.998;2022-10-31T12:25:12;18.40;59.70
1351;DHT22;669;50.206;9.998;2022-10-31T12:28:11;18.40;57.80
1351;DHT22;669;50.206;9.998;2022-10-31T12:30:52;18.30;59.10
1351;DHT22;669;50.206;9.998;2022-10-31T12:33:37;18.30;59.10
1351;DHT22;669;50.206;9.998;2022-10-31T12:36:18;18.30;59.50
1351;DHT22;669;50.206;9.998;2022-10-31T12:39:04;18.30;59.50
1351;DHT22;669;50.206;9.998;2022-10-31T12:41:45;18.40;59.50
1351;DHT22;669;50.206;9.998;2022-10-31T12:47:21;18.50;58.90
1351;DHT22;669;50.206;9.998;2022-10-31T12:49:59;18.50;59.40
1351;DHT22;669;50.206;9.998;2022-10-31T12:52:38;18.50;59.30
1351;DHT22;669;50.206;9.998;2022-10-31T12:55:20;18.40;58.50
1351;DHT22;669;50.206;9.998;2022-10-31T12:57:56;18.40;58.90
1351;DHT22;669;50.206;9.998;2022-10-31T13:00:27;18.40;58.90
1351;DHT22;669;50.206;9.998;2022-10-31T13:02:58;18.30;59.00
1351;DHT22;669;50.206;9.998;2022-10-31T13:05:30;18.20;58.70
1351;DHT22;669;50.206;9.998;2022-10-31T13:08:02;18.20;59.00
1351;DHT22;669;50.206;9.998;2022-10-31T13:10:34;18.20;59.00
1351;DHT22;669;50.206;9.998;2022-10-31T13:13:09;18.10;58.90
1351;DHT22;669;50.206;9.998;2022-10-31T13:15:47;18.00;58.30
1351;DHT22;669;50.206;9.998;2022-10-31T13:18:23;17.90;59.40
1351;DHT22;669;50.206;9.998;2022-10-31T13:20:53;17.90;58.90
1351;DHT22;669;50.206;9.998;2022-10-31T13:23:27;17.80;59.20
1351;DHT22;669;50.206;9.998;2022-10-31T13:26:21;17.80;59.40
1351;DHT22;669;50.206;9.998;2022-10-31T13:28:56;17.70;58.80
1351;DHT22;669;50.206;9.998;2022-10-31T13:31:27;17.70;58.40
1351;DHT22;669;50.206;9.998;2022-10-31T13:33:58;17.60;58.60
1351;DHT22;669;50.206;9.998;2022-10-31T13:36:33;17.60;59.00
1351;DHT22;669;50.206;9.998;2022-10-31T13:39:14;17.60;59.20
1351;DHT22;669;50.206;9.998;2022-10-31T13:41:49;17.50;59.10
1351;DHT22;669;50.206;9.998;2022-10-31T13:44:22;17.50;59.20
1351;DHT22;669;50.206;9.998;2022-10-31T13:46:51;17.50;58.90
1351;DHT22;669;50.206;9.998;2022-10-31T13:49:40;17.50;59.20
1351;DHT22;669;50.206;9.998;2022-10-31T13:52:16;17.50;58.90
1351;DHT22;669;50.206;9.998;2022-10-31T13:54:45;17.40;59.30
1351;DHT22;669;50.206;9.998;2022-10-31T13:57:17;17.40;59.40
1351;DHT22;669;50.206;9.998;2022-10-31T13:59:50;17.30;59.10
1351;DHT22;669;50.206;9.998;2022-10-31T14:02:25;17.30;59.60
1351;DHT22;669;50.206;9.998;2022-10-31T14:04:58;17.30;59.40
1351;DHT22;669;50.206;9.998;2022-10-31T14:07:28;17.30;59.70
1351;DHT22;669;50.206;9.998;2022-10-31T14:10:00;17.20;60.00
1351;DHT22;669;50.206;9.998;2022-10-31T14:12:31;17.20;59.60
1351;DHT22;669;50.206;9.998;2022-10-31T14:15:19;17.20;59.60
1351;DHT22;669;50.206;9.998;2022-10-31T14:17:51;17.10;59.80
1351;DHT22;669;50.206;9.998;2022-10-31T14:20:32;17.10;60.40
1351;DHT22;669;50.206;9.998;2022-10-31T14:23:11;17.10;60.50
1351;DHT22;669;50.206;9.998;2022-10-31T14:25:39;17.10;61.20
1351;DHT22;669;50.206;9.998;2022-10-31T14:28:20;17.00;61.10
1351;DHT22;669;50.206;9.998;2022-10-31T14:30:54;17.00;61.80
1351;DHT22;669;50.206;9.998;2022-10-31T14:33:25;17.00;61.20
1351;DHT22;669;50.206;9.998;2022-10-31T14:36:00;16.90;61.20
1351;DHT22;669;50.206;9.998;2022-10-31T14:38:40;16.90;61.70
1351;DHT22;669;50.206;9.998;2022-10-31T14:41:33;16.90;61.30
1351;DHT22;669;50.206;9.998;2022-10-31T14:44:36;16.80;60.40
1351;DHT22;669;50.206;9.998;2022-10-31T14:47:16;16.80;60.80
1351;DHT22;669;50.206;9.998;2022-10-31T14:50:12;16.80;60.90
1351;DHT22;669;50.206;9.998;2022-10-31T14:52:46;16.70;60.90
1351;DHT22;669;50.206;9.998;2022-10-31T14:55:15;16.70;61.70
1351;DHT22;669;50.206;9.998;2022-10-31T14:57:48;16.60;61.70
1351;DHT22;669;50.206;9.998;2022-10-31T15:00:19;16.60;61.80
1351;DHT22;669;50.206;9.998;2022-10-31T15:02:57;16.50;62.30
1351;DHT22;669;50.206;9.998;2022-10-31T15:05:27;16.50;62.30
1351;DHT22;669;50.206;9.998;2022-10-31T15:07:56;16.40;62.60
1351;DHT22;669;50.206;9.998;2022-10-31T15:10:26;16.30;62.80
1351;DHT22;669;50.206;9.998;2022-10-31T15:12:56;16.30;62.90
1351;DHT22;669;50.206;9.998;2022-10-31T15:15:36;16.20;64.10
1351;DHT22;669;50.206;9.998;2022-10-31T15:18:06;16.20;63.10
1351;DHT22;669;50.206;9.998;2022-10-31T15:20:44;16.10;63.00
1351;DHT22;669;50.206;9.998;2022-10-31T15:23:16;16.10;63.10
1351;DHT22;669;50.206;9.998;2022-10-31T15:25:44;16.00;63.20
1351;DHT22;669;50.206;9.998;2022-10-31T15:28:14;16.00;63.50
1351;DHT22;669;50.206;9.998;2022-10-31T15:30:50;15.90;63.90
1351;DHT22;669;50.206;9.998;2022-10-31T15:33:25;15.90;64.10
1351;DHT22;669;50.206;9.998;2022-10-31T15:35:59;15.80;64.10
1351;DHT22;669;50.206;9.998;2022-10-31T15:38:28;15.80;64.30
1351;DHT22;669;50.206;9.998;2022-10-31T15:40:58;15.70;64.40
1351;DHT22;669;50.206;9.998;2022-10-31T15:43:31;15.60;64.80
1351;DHT22;669;50.206;9.998;2022-10-31T15:46:00;15.60;64.80
1351;DHT22;669;50.206;9.998;2022-10-31T15:48:30;15.50;65.10
1351;DHT22;669;50.206;9.998;2022-10-31T15:51:01;15.40;66.10
1351;DHT22;669;50.206;9.998;2022-10-31T15:53:35;15.40;66.80
1351;DHT22;669;50.206;9.998;2022-10-31T15:56:07;15.30;67.30
1351;DHT22;669;50.206;9.998;2022-10-31T15:58:43;15.20;67.70
1351;DHT22;669;50.206;9.998;2022-10-31T16:01:21;15.20;68.80
1351;DHT22;669;50.206;9.998;2022-10-31T16:04:04;15.10;69.00
1351;DHT22;669;50.206;9.998;2022-10-31T16:06:34;15.00;69.20
1351;DHT22;669;50.206;9.998;2022-10-31T16:09:03;14.90;70.00
1351;DHT22;669;50.206;9.998;2022-10-31T16:11:36;14.90;70.10
1351;DHT22;669;50.206;9.998;2022-10-31T16:14:06;14.90;70.00
1351;DHT22;669;50.206;9.998;2022-10-31T16:16:40;14.70;68.40
1351;DHT22;669;50.206;9.998;2022-10-31T16:19:17;14.50;68.70
1351;DHT22;669;50.206;9.998;2022-10-31T16:21:47;14.30;69.50
1351;DHT22;669;50.206;9.998;2022-10-31T16:24:18;14.30;70.10
1351;DHT22;669;50.206;9.998;2022-10-31T16:26:49;14.10;70.70
1351;DHT22;669;50.206;9.998;2022-10-31T16:29:28;14.10;71.70
1351;DHT22;669;50.206;9.998;2022-10-31T16:31:59;14.10;73.20
1351;DHT22;669;50.206;9.998;2022-10-31T16:34:29;14.00;73.10
1351;DHT22;669;50.206;9.998;2022-10-31T16:36:57;14.00;73.10
1351;DHT22;669;50.206;9.998;2022-10-31T16:39:24;13.90;72.40
1351;DHT22;669;50.206;9.998;2022-10-31T16:41:55;13.90;72.70
1351;DHT22;669;50.206;9.998;2022-10-31T16:44:25;13.80;72.90
1351;DHT22;669;50.206;9.998;2022-10-31T16:47:08;13.70;71.60
1351;DHT22;669;50.206;9.998;2022-10-31T16:49:38;13.60;71.70
1351;DHT22;669;50.206;9.998;2022-10-31T16:52:05;13.50;71.30
1351;DHT22;669;50.206;9.998;2022-10-31T16:54:33;13.40;70.90
1351;DHT22;669;50.206;9.998;2022-10-31T16:57:03;13.30;72.90
1351;DHT22;669;50.206;9.998;2022-10-31T16:59:32;13.30;73.40
1351;DHT22;669;50.206;9.998;2022-10-31T17:02:01;13.20;73.70
1351;DHT22;669;50.206;9.998;2022-10-31T17:04:30;13.20;74.00